createdAt,value
2023-05-19T00:02:56.461Z,61.04
2023-05-19T00:05:46.482Z,57.32
2023-05-19T00:08:38.193Z,56.93
2023-05-19T00:11:28.720Z,58.80
2023-05-19T00:14:17.229Z,60.43
2023-05-19T00:17:06.179Z,65.17
2023-05-19T00:19:55.074Z,67.34
2023-05-19T00:22:45.181Z,64.39
2023-05-19T00:25:33.594Z,61.68
2023-05-19T00:28:21.861Z,57.45
2023-05-19T00:31:10.257Z,56.83
2023-05-19T00:33:58.376Z,58.35
2023-05-19T00:36:46.860Z,60.39
2023-05-19T00:39:35.329Z,61.55
2023-05-19T00:42:23.642Z,67.03
2023-05-19T00:45:11.958Z,69.61
2023-05-19T00:48:01.734Z,66.07
2023-05-19T00:50:52.537Z,63.00
2023-05-19T00:53:41.296Z,60.63
2023-05-19T00:56:29.749Z,57.48
2023-05-19T00:59:18.079Z,57.02
2023-05-19T01:02:07.105Z,58.90
2023-05-19T01:04:57.538Z,59.91
2023-05-19T01:07:47.421Z,61.15
2023-05-19T01:10:36.406Z,66.65
2023-05-19T01:13:25.746Z,69.22
2023-05-19T01:16:42.990Z,66.56
2023-05-19T01:19:56.513Z,63.14
2023-05-19T01:22:57.314Z,61.10
2023-05-19T01:26:35.086Z,60.01
2023-05-19T01:30:10.962Z,56.30
2023-05-19T01:33:07.695Z,58.10
2023-05-19T01:35:57.749Z,59.77
2023-05-19T01:38:47.926Z,62.28
2023-05-19T01:41:37.239Z,67.25
2023-05-19T01:44:26.932Z,69.10
2023-05-19T01:47:15.831Z,66.13
2023-05-19T01:50:05.154Z,63.56
2023-05-19T01:52:54.027Z,61.35
2023-05-19T01:55:52.048Z,60.27
2023-05-19T01:58:53.240Z,57.55
2023-05-19T02:01:53.463Z,57.60
2023-05-19T02:05:00.665Z,59.22
2023-05-19T02:08:02.597Z,61.18
2023-05-19T02:11:08.445Z,66.88
2023-05-19T02:14:00.112Z,68.27
2023-05-19T02:16:49.557Z,64.68
2023-05-19T02:19:42.618Z,62.26
2023-05-19T02:22:31.614Z,60.50
2023-05-19T02:25:19.950Z,56.73
2023-05-19T02:28:08.686Z,56.55
2023-05-19T02:30:56.833Z,58.48
2023-05-19T02:33:45.960Z,59.95
2023-05-19T02:36:39.142Z,63.87
2023-05-19T02:39:30.407Z,67.58
2023-05-19T02:42:18.605Z,64.77
2023-05-19T02:45:07.370Z,62.36
2023-05-19T02:47:56.989Z,60.48
2023-05-19T02:50:47.136Z,57.32
2023-05-19T02:53:38.581Z,57.35
2023-05-19T02:56:26.635Z,58.85
2023-05-19T02:59:14.762Z,60.45
2023-05-19T03:02:05.656Z,60.34
2023-05-19T03:04:53.822Z,65.76
2023-05-19T03:07:42.341Z,69.40
2023-05-19T03:10:31.167Z,67.38
2023-05-19T03:13:19.453Z,64.13
2023-05-19T03:16:08.665Z,61.32
2023-05-19T03:18:57.715Z,60.04
2023-05-19T03:21:46.559Z,57.29
2023-05-19T03:24:34.826Z,57.15
2023-05-19T03:27:24.649Z,59.06
2023-05-19T03:30:14.131Z,60.08
2023-05-19T03:33:16.499Z,61.44
2023-05-19T03:36:06.901Z,66.36
2023-05-19T03:38:59.042Z,68.53
2023-05-19T03:41:47.629Z,64.76
2023-05-19T03:44:35.851Z,61.85
2023-05-19T03:47:24.548Z,57.84
2023-05-19T03:50:34.144Z,56.03
2023-05-19T03:53:33.704Z,57.48
2023-05-19T03:56:25.161Z,58.50
2023-05-19T03:59:13.211Z,60.24
2023-05-19T04:02:01.319Z,63.94
2023-05-19T04:04:51.405Z,66.97
2023-05-19T04:07:40.305Z,64.06
2023-05-19T04:10:28.863Z,61.60
2023-05-19T04:13:18.409Z,57.84
2023-05-19T04:16:07.601Z,55.61
2023-05-19T04:18:57.083Z,55.96
2023-05-19T04:21:46.336Z,57.11
2023-05-19T04:24:35.058Z,58.17
2023-05-19T04:27:23.770Z,60.14
2023-05-19T04:30:12.722Z,61.25
2023-05-19T04:33:05.018Z,63.60
2023-05-19T04:35:53.866Z,65.01
2023-05-19T04:38:42.100Z,62.27
2023-05-19T04:41:31.843Z,57.66
2023-05-19T04:44:20.667Z,54.52
2023-05-19T04:47:11.580Z,56.68
2023-05-19T04:50:04.115Z,58.13
2023-05-19T04:52:53.353Z,58.03
2023-05-19T04:55:41.642Z,59.52
2023-05-19T04:58:31.104Z,61.18
2023-05-19T05:01:28.288Z,60.45
2023-05-19T05:04:17.118Z,61.78
2023-05-19T05:07:06.450Z,63.13
2023-05-19T05:09:58.633Z,62.03
2023-05-19T05:12:50.288Z,57.41
2023-05-19T05:15:39.828Z,55.57
2023-05-19T05:18:34.574Z,56.01
2023-05-19T05:21:23.997Z,57.06
2023-05-19T05:24:13.462Z,57.63
2023-05-19T05:27:02.172Z,57.03
2023-05-19T05:29:53.111Z,54.92
2023-05-19T05:32:42.872Z,56.18
2023-05-19T05:35:38.953Z,54.94
2023-05-19T05:38:28.178Z,54.48
2023-05-19T05:41:18.709Z,53.57
2023-05-19T05:44:07.818Z,52.41
2023-05-19T05:46:56.992Z,50.64
2023-05-19T05:49:48.832Z,49.29
2023-05-19T05:52:41.291Z,47.91
2023-05-19T05:55:32.004Z,48.48
2023-05-19T05:58:51.344Z,47.80
2023-05-19T06:01:44.044Z,45.97
2023-05-19T06:04:33.107Z,44.55
2023-05-19T06:07:25.220Z,42.04
2023-05-19T06:10:14.450Z,41.45
2023-05-19T06:13:29.625Z,40.91
2023-05-19T06:16:21.268Z,38.86
2023-05-19T06:19:10.161Z,38.56
2023-05-19T06:22:11.000Z,38.32
2023-05-19T06:25:09.094Z,37.74
2023-05-19T06:27:58.178Z,36.11
2023-05-19T06:30:47.380Z,35.83
2023-05-19T06:33:58.978Z,35.27
2023-05-19T06:36:47.560Z,35.14
2023-05-19T06:39:43.005Z,35.55
2023-05-19T06:42:33.075Z,34.50
2023-05-19T06:45:34.701Z,33.23
2023-05-19T06:48:27.035Z,32.70
2023-05-19T06:51:21.887Z,32.03
2023-05-19T06:54:16.481Z,31.81
2023-05-19T06:57:17.297Z,31.41
2023-05-19T07:00:19.804Z,30.52
2023-05-19T07:03:21.113Z,29.30
2023-05-19T07:06:16.284Z,27.67
2023-05-19T07:09:09.055Z,27.51
2023-05-19T07:12:01.604Z,26.64
2023-05-19T07:15:09.872Z,25.39
2023-05-19T07:18:06.616Z,24.43
2023-05-19T07:21:00.449Z,24.20
2023-05-19T07:23:58.230Z,23.70
2023-05-19T07:26:52.079Z,23.21
2023-05-19T07:29:46.469Z,23.86
2023-05-19T07:32:40.952Z,23.51
2023-05-19T07:35:40.050Z,23.16
2023-05-19T07:38:36.224Z,22.82
2023-05-19T07:41:27.663Z,22.81
2023-05-19T07:44:18.825Z,22.76
2023-05-19T07:47:08.813Z,23.27
2023-05-19T07:50:08.082Z,23.49
2023-05-19T07:53:01.251Z,23.33
2023-05-19T07:55:58.724Z,23.56
2023-05-19T07:58:57.654Z,23.45
2023-05-19T08:01:52.359Z,23.67
2023-05-19T08:04:49.148Z,23.92
2023-05-19T08:07:53.411Z,24.12
2023-05-19T08:10:47.763Z,24.60
2023-05-19T08:13:49.878Z,24.96
2023-05-19T08:16:50.994Z,24.95
2023-05-19T08:19:39.763Z,25.19
2023-05-19T08:22:29.926Z,25.44
2023-05-19T08:25:21.356Z,25.38
2023-05-19T08:28:11.976Z,25.52
2023-05-19T08:31:10.349Z,25.59
2023-05-19T08:34:04.519Z,25.89
2023-05-19T08:36:57.996Z,26.36
2023-05-19T08:39:49.069Z,27.12
2023-05-19T08:42:38.689Z,28.28
2023-05-19T08:45:39.316Z,28.93
2023-05-19T08:48:31.564Z,29.34
2023-05-19T08:52:21.368Z,30.25
2023-05-19T08:55:17.172Z,31.34
2023-05-19T08:58:08.680Z,32.34
2023-05-19T09:00:59.710Z,33.09
2023-05-19T09:03:50.196Z,33.52
2023-05-19T09:06:45.152Z,34.09
2023-05-19T09:09:33.334Z,34.59
2023-05-19T09:12:21.851Z,34.88
2023-05-19T09:15:11.107Z,35.27
2023-05-19T09:18:14.139Z,35.91
2023-05-19T09:21:03.431Z,36.36
2023-05-19T09:23:51.807Z,36.71
2023-05-19T09:26:43.164Z,36.94
2023-05-19T09:29:31.642Z,37.47
2023-05-19T09:32:29.921Z,37.24
2023-05-19T09:35:20.858Z,36.99
2023-05-19T09:38:12.011Z,37.59
2023-05-19T09:41:01.926Z,37.87
2023-05-19T09:43:56.587Z,38.20
2023-05-19T09:46:51.247Z,38.23
2023-05-19T09:49:47.785Z,38.27
2023-05-19T09:52:39.205Z,38.55
2023-05-19T09:55:29.400Z,38.61
2023-05-19T09:58:21.759Z,38.92
2023-05-19T10:01:10.334Z,39.25
2023-05-19T10:03:58.375Z,39.44
2023-05-19T10:06:46.619Z,39.61
2023-05-19T10:09:37.618Z,39.67
2023-05-19T10:12:27.691Z,40.02
2023-05-19T10:15:22.229Z,40.60
2023-05-19T10:18:16.055Z,40.77
2023-05-19T10:21:06.477Z,41.13
2023-05-19T10:23:59.201Z,41.55
2023-05-19T10:27:03.621Z,41.65
2023-05-19T10:29:52.424Z,42.15
2023-05-19T10:32:44.897Z,42.67
2023-05-19T10:36:02.845Z,42.98
2023-05-19T10:39:05.647Z,43.00
2023-05-19T10:42:31.070Z,43.26
2023-05-19T10:45:24.404Z,43.71
2023-05-19T10:48:19.622Z,43.83
2023-05-19T10:51:12.362Z,44.00
2023-05-19T10:54:11.442Z,44.25
2023-05-19T10:57:01.093Z,44.42
2023-05-19T10:59:50.239Z,44.62
2023-05-19T11:02:46.359Z,44.71
2023-05-19T11:05:37.114Z,44.64
2023-05-19T11:08:36.579Z,44.69
2023-05-19T11:11:25.135Z,44.55
2023-05-19T11:14:17.265Z,44.33
2023-05-19T11:17:14.536Z,44.43
2023-05-19T11:20:05.074Z,44.76
2023-05-19T11:23:08.874Z,45.16
2023-05-19T11:25:57.950Z,46.00
2023-05-19T11:28:48.345Z,45.89
2023-05-19T11:31:37.570Z,46.14
2023-05-19T11:34:27.368Z,46.45
2023-05-19T11:37:17.254Z,46.68
2023-05-19T11:40:07.784Z,47.08
2023-05-19T11:42:56.217Z,46.99
2023-05-19T11:45:46.021Z,47.23
2023-05-19T11:48:34.215Z,47.59
2023-05-19T11:51:23.426Z,47.54
2023-05-19T11:54:12.969Z,47.59
2023-05-19T11:57:03.120Z,47.76
2023-05-19T11:59:53.560Z,47.82
2023-05-19T12:02:42.252Z,47.80
2023-05-19T12:05:34.504Z,47.66
2023-05-19T12:08:25.622Z,47.30
2023-05-19T12:11:15.031Z,46.88
2023-05-19T12:14:03.648Z,46.48
2023-05-19T12:16:52.253Z,46.15
2023-05-19T12:19:50.398Z,46.15
2023-05-19T12:22:38.567Z,46.35
2023-05-19T12:25:28.171Z,46.38
2023-05-19T12:28:17.247Z,46.48
2023-05-19T12:31:06.919Z,46.50
2023-05-19T12:33:56.159Z,46.63
2023-05-19T12:36:46.728Z,46.55
2023-05-19T12:39:36.464Z,46.37
2023-05-19T12:42:31.422Z,46.71
2023-05-19T12:45:28.693Z,46.74
2023-05-19T12:48:17.436Z,46.38
2023-05-19T12:51:06.129Z,46.07
2023-05-19T12:53:54.891Z,45.68
2023-05-19T12:56:51.358Z,45.47
2023-05-19T12:59:42.868Z,45.34
2023-05-19T13:02:34.561Z,45.03
2023-05-19T13:05:23.474Z,45.02
2023-05-19T13:08:16.309Z,45.27
2023-05-19T13:11:05.133Z,45.40
2023-05-19T13:13:53.719Z,45.36
2023-05-19T13:16:42.882Z,45.38
2023-05-19T13:19:30.790Z,45.54
2023-05-19T13:22:19.516Z,45.82
2023-05-19T13:25:09.321Z,46.33
2023-05-19T13:27:59.556Z,46.05
2023-05-19T13:30:49.944Z,46.41
2023-05-19T13:33:37.913Z,46.51
2023-05-19T13:36:30.575Z,46.26
2023-05-19T13:39:19.712Z,46.43
2023-05-19T13:42:09.159Z,46.62
2023-05-19T13:44:58.161Z,46.46
2023-05-19T13:47:46.629Z,46.71
2023-05-19T13:50:34.759Z,46.55
2023-05-19T13:53:23.160Z,46.90
2023-05-19T13:56:14.536Z,46.83
2023-05-19T13:59:04.277Z,47.05
2023-05-19T14:01:52.653Z,47.39
2023-05-19T14:04:42.018Z,47.57
2023-05-19T14:07:30.875Z,47.53
2023-05-19T14:10:23.264Z,47.67
2023-05-19T14:13:31.477Z,47.71
2023-05-19T14:16:23.199Z,47.28
2023-05-19T14:19:11.942Z,47.61
2023-05-19T14:22:00.450Z,47.79
2023-05-19T14:24:48.760Z,48.16
2023-05-19T14:27:41.043Z,47.88
2023-05-19T14:30:29.405Z,48.25
2023-05-19T14:33:22.073Z,48.61
2023-05-19T14:36:10.783Z,49.06
2023-05-19T14:38:58.997Z,49.43
2023-05-19T14:41:49.497Z,49.91
2023-05-19T14:44:40.412Z,50.38
2023-05-19T14:47:58.479Z,50.38
2023-05-19T14:50:50.413Z,50.46
2023-05-19T14:53:39.479Z,50.68
2023-05-19T14:56:32.165Z,51.09
2023-05-19T14:59:22.968Z,51.46
2023-05-19T15:02:14.271Z,51.72
2023-05-19T15:05:04.014Z,52.14
2023-05-19T15:07:57.438Z,52.57
2023-05-19T15:10:50.097Z,53.46
2023-05-19T15:13:39.346Z,52.51
2023-05-19T15:16:28.355Z,52.51
2023-05-19T15:19:17.372Z,53.46
2023-05-19T15:22:07.364Z,53.56
2023-05-19T15:24:57.499Z,53.52
2023-05-19T15:27:49.340Z,53.82
2023-05-19T15:30:40.010Z,54.46
2023-05-19T15:33:32.574Z,54.98
2023-05-19T15:36:24.865Z,55.50
2023-05-19T15:39:13.930Z,56.03
2023-05-19T15:42:03.548Z,57.29
2023-05-19T15:44:52.539Z,57.29
2023-05-19T15:47:40.642Z,57.63
2023-05-19T15:50:30.137Z,58.05
2023-05-19T15:53:20.459Z,58.87
2023-05-19T15:56:08.725Z,58.78
2023-05-19T15:58:57.988Z,59.19
2023-05-19T16:01:46.860Z,59.78
2023-05-19T16:04:35.220Z,59.12
2023-05-19T16:07:23.964Z,59.61
2023-05-19T16:10:12.717Z,59.51
2023-05-19T16:13:00.965Z,59.49
2023-05-19T16:15:49.504Z,59.45
2023-05-19T16:18:37.884Z,59.55
2023-05-19T16:21:26.120Z,60.47
2023-05-19T16:24:14.517Z,60.71
2023-05-19T16:27:05.221Z,60.66
2023-05-19T16:29:53.625Z,64.31
2023-05-19T16:32:41.660Z,66.39
2023-05-19T16:35:29.948Z,63.25
2023-05-19T16:38:18.335Z,56.16
2023-05-19T16:41:12.282Z,56.40
2023-05-19T16:44:02.488Z,56.09
2023-05-19T16:46:51.047Z,56.76
2023-05-19T16:49:42.540Z,57.71
2023-05-19T16:52:30.649Z,59.34
2023-05-19T16:55:20.819Z,60.33
2023-05-19T16:58:11.824Z,59.82
2023-05-19T17:01:00.675Z,60.23
2023-05-19T17:03:49.006Z,60.91
2023-05-19T17:06:37.649Z,65.16
2023-05-19T17:09:26.472Z,68.39
2023-05-19T17:12:15.964Z,66.42
2023-05-19T17:15:04.751Z,64.30
2023-05-19T17:17:53.798Z,59.92
2023-05-19T17:20:42.023Z,57.40
2023-05-19T17:23:30.769Z,57.20
2023-05-19T17:26:19.235Z,57.07
2023-05-19T17:29:07.419Z,58.70
2023-05-19T17:31:55.909Z,59.58
2023-05-19T17:34:44.176Z,60.43
2023-05-19T17:37:33.431Z,64.47
2023-05-19T17:40:21.752Z,66.73
2023-05-19T17:43:11.045Z,63.93
2023-05-19T17:46:01.030Z,61.11
2023-05-19T17:48:49.438Z,57.93
2023-05-19T17:51:39.592Z,56.66
2023-05-19T17:54:30.034Z,58.14
2023-05-19T17:57:19.128Z,59.73
2023-05-19T18:00:09.165Z,64.38
2023-05-19T18:02:57.741Z,66.90
2023-05-19T18:05:46.819Z,65.77
2023-05-19T18:08:38.226Z,63.30
2023-05-19T18:11:27.498Z,59.62
2023-05-19T18:14:16.550Z,57.36
2023-05-19T18:17:05.618Z,59.00
2023-05-19T18:19:54.802Z,59.59
2023-05-19T18:22:43.603Z,60.15
2023-05-19T18:25:31.599Z,63.93
2023-05-19T18:28:20.473Z,67.77
2023-05-19T18:31:17.551Z,65.90
2023-05-19T18:34:06.535Z,64.08
2023-05-19T18:36:54.998Z,60.24
2023-05-19T18:39:42.969Z,58.23
2023-05-19T18:42:31.019Z,58.24
2023-05-19T18:45:19.543Z,59.87
2023-05-19T18:48:08.885Z,60.69
2023-05-19T18:50:58.054Z,63.96
2023-05-19T18:53:50.152Z,66.81
2023-05-19T18:56:38.735Z,66.67
2023-05-19T18:59:27.000Z,62.78
2023-05-19T19:02:15.249Z,61.07
2023-05-19T19:05:04.267Z,57.23
2023-05-19T19:07:53.941Z,56.30
2023-05-19T19:10:42.648Z,57.77
2023-05-19T19:13:30.919Z,58.99
2023-05-19T19:16:19.444Z,62.13
2023-05-19T19:19:08.780Z,64.44
2023-05-19T19:21:58.306Z,62.70
2023-05-19T19:24:48.224Z,64.29
2023-05-19T19:27:37.786Z,60.03
2023-05-19T19:30:27.617Z,54.55
2023-05-19T19:33:16.032Z,54.01
2023-05-19T19:36:05.063Z,54.66
2023-05-19T19:38:53.826Z,57.67
2023-05-19T19:41:42.724Z,59.15
2023-05-19T19:44:33.423Z,63.07
2023-05-19T19:47:22.478Z,64.69
2023-05-19T19:50:12.797Z,65.26
2023-05-19T19:53:02.084Z,62.68
2023-05-19T19:56:02.705Z,57.77
2023-05-19T19:58:52.273Z,56.49
2023-05-19T20:01:40.631Z,58.43
2023-05-19T20:04:29.762Z,60.17
2023-05-19T20:07:21.092Z,63.97
2023-05-19T20:10:11.742Z,68.03
2023-05-19T20:13:01.374Z,66.15
2023-05-19T20:15:50.793Z,63.77
2023-05-19T20:18:40.904Z,62.39
2023-05-19T20:21:30.527Z,60.88
2023-05-19T20:24:18.958Z,58.04
2023-05-19T20:27:11.162Z,56.38
2023-05-19T20:29:59.982Z,57.69
2023-05-19T20:32:50.267Z,60.38
2023-05-19T20:35:41.061Z,63.44
2023-05-19T20:38:31.535Z,67.55
2023-05-19T20:41:21.324Z,65.62
2023-05-19T20:44:12.881Z,63.90
2023-05-19T20:47:01.401Z,62.25
2023-05-19T20:49:50.250Z,61.35
2023-05-19T20:52:40.202Z,58.15
2023-05-19T20:55:29.093Z,57.00
2023-05-19T20:58:17.219Z,58.40
2023-05-19T21:01:06.032Z,59.83
2023-05-19T21:03:54.607Z,63.38
2023-05-19T21:06:42.910Z,66.70
2023-05-19T21:09:31.001Z,65.37
2023-05-19T21:12:25.523Z,63.14
2023-05-19T21:15:15.823Z,61.56
2023-05-19T21:18:07.271Z,57.52
2023-05-19T21:20:56.854Z,56.84
2023-05-19T21:23:45.582Z,57.87
2023-05-19T21:26:33.774Z,60.09
2023-05-19T21:29:31.181Z,62.88
2023-05-19T21:32:29.745Z,63.73
2023-05-19T21:35:17.970Z,62.89
2023-05-19T21:38:15.688Z,60.99
2023-05-19T21:41:12.547Z,57.87
2023-05-19T21:44:01.520Z,57.98
2023-05-19T21:46:52.250Z,58.22
2023-05-19T21:49:41.085Z,59.50
2023-05-19T21:52:29.470Z,60.88
2023-05-19T21:55:18.581Z,64.38
2023-05-19T21:58:06.852Z,65.80
2023-05-19T22:00:55.024Z,63.45
2023-05-19T22:03:43.390Z,61.18
2023-05-19T22:06:31.759Z,57.05
2023-05-19T22:09:20.068Z,55.02
2023-05-19T22:12:09.062Z,56.26
2023-05-19T22:14:57.282Z,57.26
2023-05-19T22:17:45.538Z,59.81
2023-05-19T22:20:34.222Z,60.60
2023-05-19T22:23:23.020Z,63.02
2023-05-19T22:26:11.697Z,63.46
2023-05-19T22:29:01.184Z,62.21
2023-05-19T22:31:50.445Z,56.95
2023-05-19T22:34:39.332Z,56.32
2023-05-19T22:37:29.106Z,58.15
2023-05-19T22:40:18.017Z,59.98
2023-05-19T22:43:06.300Z,60.93
2023-05-19T22:45:56.380Z,62.51
2023-05-19T22:48:45.425Z,63.03
2023-05-19T22:51:33.810Z,60.43
2023-05-19T22:54:21.901Z,56.22
2023-05-19T22:57:11.585Z,54.15
2023-05-19T22:59:59.620Z,57.53
2023-05-19T23:02:47.829Z,58.20
2023-05-19T23:05:36.165Z,58.61
2023-05-19T23:08:24.424Z,59.41
2023-05-19T23:11:13.262Z,61.13
2023-05-19T23:14:02.059Z,62.76
2023-05-19T23:16:50.485Z,62.91
2023-05-19T23:19:39.166Z,62.24
2023-05-19T23:22:27.578Z,58.03
2023-05-19T23:25:15.668Z,55.72
2023-05-19T23:28:04.112Z,57.02
2023-05-19T23:30:54.432Z,59.10
2023-05-19T23:33:42.897Z,59.79
2023-05-19T23:36:31.793Z,60.58
2023-05-19T23:39:20.153Z,63.60
2023-05-19T23:42:08.322Z,66.04
2023-05-19T23:44:56.594Z,62.01
2023-05-19T23:47:44.815Z,57.39
2023-05-19T23:50:32.982Z,55.63
2023-05-19T23:53:21.408Z,56.83
2023-05-19T23:56:10.691Z,58.70
2023-05-19T23:58:58.854Z,60.00
